Terminal Aerodrome Forecast
Issued by NWS Wakefield, VA

Home | Current Version | Previous Version | Text Only | Print | Product List | Glossary On
Versions: 1 2 3 4 5 6 7 8 9 10 11 12
000
FTUS41 KAKQ 171700
TAFECG
TAF
KECG 171720Z 1718/1818 05010KT P6SM BKN045 OVC080
     FM180800 03005KT P6SM BKN020 BKN045
     FM181300 05008KT P6SM BKN045 OVC080=

USA.gov is the U.S. government's official web portal to all federal, state and local government web resources and services.